sensor_id;sensor_type;location;lat;lon;timestamp;P1;durP1;ratioP1;P2;durP2;ratioP2
10701;SDS011;5402;50.004;8.246;2023-04-15T00:00:12;6.47;;;3.53;;
10701;SDS011;5402;50.004;8.246;2023-04-15T00:02:41;5.53;;;3.20;;
10701;SDS011;5402;50.004;8.246;2023-04-15T00:05:08;4.57;;;3.20;;
10701;SDS011;5402;50.004;8.246;2023-04-15T00:07:35;5.70;;;3.50;;
10701;SDS011;5402;50.004;8.246;2023-04-15T00:10:02;5.07;;;3.10;;
10701;SDS011;5402;50.004;8.246;2023-04-15T00:12:30;6.03;;;3.30;;
10701;SDS011;5402;50.004;8.246;2023-04-15T00:14:56;4.87;;;3.00;;
10701;SDS011;5402;50.004;8.246;2023-04-15T00:17:23;5.97;;;2.97;;
10701;SDS011;5402;50.004;8.246;2023-04-15T00:19:51;3.83;;;2.93;;
10701;SDS011;5402;50.004;8.246;2023-04-15T00:22:18;6.30;;;3.03;;
10701;SDS011;5402;50.004;8.246;2023-04-15T00:24:45;5.83;;;3.37;;
10701;SDS011;5402;50.004;8.246;2023-04-15T00:27:12;5.37;;;3.27;;
10701;SDS011;5402;50.004;8.246;2023-04-15T00:29:40;4.60;;;2.90;;
10701;SDS011;5402;50.004;8.246;2023-04-15T00:32:07;3.20;;;2.60;;
10701;SDS011;5402;50.004;8.246;2023-04-15T00:34:34;3.60;;;2.80;;
10701;SDS011;5402;50.004;8.246;2023-04-15T00:37:02;5.43;;;2.80;;
10701;SDS011;5402;50.004;8.246;2023-04-15T00:39:29;6.80;;;2.87;;
10701;SDS011;5402;50.004;8.246;2023-04-15T00:41:55;4.73;;;2.87;;
10701;SDS011;5402;50.004;8.246;2023-04-15T00:44:23;5.40;;;2.80;;
10701;SDS011;5402;50.004;8.246;2023-04-15T00:46:50;4.10;;;2.93;;
10701;SDS011;5402;50.004;8.246;2023-04-15T00:49:17;5.13;;;2.80;;
10701;SDS011;5402;50.004;8.246;2023-04-15T00:51:44;5.07;;;2.77;;
10701;SDS011;5402;50.004;8.246;2023-04-15T00:54:12;5.07;;;3.10;;
10701;SDS011;5402;50.004;8.246;2023-04-15T00:56:39;4.30;;;2.50;;
10701;SDS011;5402;50.004;8.246;2023-04-15T00:59:06;5.27;;;2.97;;
10701;SDS011;5402;50.004;8.246;2023-04-15T01:01:34;4.70;;;2.80;;
10701;SDS011;5402;50.004;8.246;2023-04-15T01:04:02;2.83;;;2.47;;
10701;SDS011;5402;50.004;8.246;2023-04-15T01:06:29;4.20;;;2.37;;
10701;SDS011;5402;50.004;8.246;2023-04-15T01:08:57;6.80;;;3.27;;
10701;SDS011;5402;50.004;8.246;2023-04-15T01:11:26;4.97;;;2.80;;
10701;SDS011;5402;50.004;8.246;2023-04-15T01:13:54;4.93;;;2.70;;
10701;SDS011;5402;50.004;8.246;2023-04-15T01:16:24;3.00;;;2.43;;
10701;SDS011;5402;50.004;8.246;2023-04-15T01:18:51;4.27;;;2.63;;
10701;SDS011;5402;50.004;8.246;2023-04-15T01:21:19;3.73;;;2.47;;
10701;SDS011;5402;50.004;8.246;2023-04-15T01:23:47;3.93;;;2.37;;
10701;SDS011;5402;50.004;8.246;2023-04-15T01:26:17;4.00;;;2.40;;
10701;SDS011;5402;50.004;8.246;2023-04-15T01:28:45;4.03;;;2.40;;
10701;SDS011;5402;50.004;8.246;2023-04-15T01:31:13;4.00;;;2.47;;
10701;SDS011;5402;50.004;8.246;2023-04-15T01:33:41;5.67;;;2.80;;
10701;SDS011;5402;50.004;8.246;2023-04-15T01:36:08;4.03;;;2.80;;
10701;SDS011;5402;50.004;8.246;2023-04-15T01:38:35;4.13;;;2.80;;
10701;SDS011;5402;50.004;8.246;2023-04-15T01:41:03;5.93;;;2.53;;
10701;SDS011;5402;50.004;8.246;2023-04-15T01:43:32;5.53;;;2.63;;
10701;SDS011;5402;50.004;8.246;2023-04-15T01:46:00;5.60;;;2.27;;
10701;SDS011;5402;50.004;8.246;2023-04-15T01:48:26;5.47;;;2.73;;
10701;SDS011;5402;50.004;8.246;2023-04-15T01:50:53;7.03;;;3.13;;
10701;SDS011;5402;50.004;8.246;2023-04-15T01:53:21;4.47;;;2.63;;
10701;SDS011;5402;50.004;8.246;2023-04-15T01:55:48;4.83;;;2.50;;
10701;SDS011;5402;50.004;8.246;2023-04-15T01:58:15;4.30;;;2.40;;
10701;SDS011;5402;50.004;8.246;2023-04-15T02:00:43;3.27;;;2.50;;
10701;SDS011;5402;50.004;8.246;2023-04-15T02:03:10;3.23;;;2.40;;
10701;SDS011;5402;50.004;8.246;2023-04-15T02:05:36;5.20;;;2.87;;
10701;SDS011;5402;50.004;8.246;2023-04-15T02:08:03;3.30;;;2.50;;
10701;SDS011;5402;50.004;8.246;2023-04-15T02:10:30;5.40;;;2.60;;
10701;SDS011;5402;50.004;8.246;2023-04-15T02:12:57;4.00;;;2.43;;
10701;SDS011;5402;50.004;8.246;2023-04-15T02:15:24;9.57;;;2.90;;
10701;SDS011;5402;50.004;8.246;2023-04-15T02:17:52;4.00;;;2.60;;
10701;SDS011;5402;50.004;8.246;2023-04-15T02:20:19;5.00;;;2.67;;
10701;SDS011;5402;50.004;8.246;2023-04-15T02:22:46;7.03;;;2.60;;
10701;SDS011;5402;50.004;8.246;2023-04-15T02:25:13;5.70;;;2.50;;
10701;SDS011;5402;50.004;8.246;2023-04-15T02:27:41;5.33;;;2.93;;
10701;SDS011;5402;50.004;8.246;2023-04-15T02:30:08;5.30;;;2.27;;
10701;SDS011;5402;50.004;8.246;2023-04-15T02:32:35;4.90;;;2.50;;
10701;SDS011;5402;50.004;8.246;2023-04-15T02:35:04;5.50;;;2.80;;
10701;SDS011;5402;50.004;8.246;2023-04-15T02:37:34;4.90;;;2.27;;
10701;SDS011;5402;50.004;8.246;2023-04-15T02:40:05;3.87;;;2.40;;
10701;SDS011;5402;50.004;8.246;2023-04-15T02:42:33;4.20;;;3.00;;
10701;SDS011;5402;50.004;8.246;2023-04-15T02:45:00;7.03;;;2.40;;
10701;SDS011;5402;50.004;8.246;2023-04-15T02:47:27;5.73;;;2.27;;
10701;SDS011;5402;50.004;8.246;2023-04-15T02:49:53;4.53;;;2.30;;
10701;SDS011;5402;50.004;8.246;2023-04-15T02:52:23;3.87;;;2.50;;
10701;SDS011;5402;50.004;8.246;2023-04-15T02:54:50;5.27;;;2.70;;
10701;SDS011;5402;50.004;8.246;2023-04-15T02:57:17;4.23;;;2.30;;
10701;SDS011;5402;50.004;8.246;2023-04-15T02:59:44;3.73;;;2.40;;
10701;SDS011;5402;50.004;8.246;2023-04-15T03:02:11;4.50;;;2.43;;
10701;SDS011;5402;50.004;8.246;2023-04-15T03:04:38;4.10;;;2.20;;
10701;SDS011;5402;50.004;8.246;2023-04-15T03:07:06;3.97;;;2.23;;
10701;SDS011;5402;50.004;8.246;2023-04-15T03:09:34;3.47;;;2.13;;
10701;SDS011;5402;50.004;8.246;2023-04-15T03:12:00;4.93;;;2.40;;
10701;SDS011;5402;50.004;8.246;2023-04-15T03:14:27;6.37;;;2.60;;
10701;SDS011;5402;50.004;8.246;2023-04-15T03:16:54;5.37;;;2.33;;
10701;SDS011;5402;50.004;8.246;2023-04-15T03:19:23;4.27;;;2.70;;
10701;SDS011;5402;50.004;8.246;2023-04-15T03:21:50;3.83;;;2.20;;
10701;SDS011;5402;50.004;8.246;2023-04-15T03:24:17;7.07;;;2.67;;
10701;SDS011;5402;50.004;8.246;2023-04-15T03:26:45;3.83;;;2.53;;
10701;SDS011;5402;50.004;8.246;2023-04-15T03:29:12;5.77;;;2.30;;
10701;SDS011;5402;50.004;8.246;2023-04-15T03:31:38;3.87;;;2.30;;
10701;SDS011;5402;50.004;8.246;2023-04-15T03:34:05;3.50;;;2.50;;
10701;SDS011;5402;50.004;8.246;2023-04-15T03:36:32;3.77;;;2.33;;
10701;SDS011;5402;50.004;8.246;2023-04-15T03:38:58;3.50;;;2.60;;
10701;SDS011;5402;50.004;8.246;2023-04-15T03:41:26;5.30;;;2.30;;
10701;SDS011;5402;50.004;8.246;2023-04-15T03:43:54;8.07;;;2.80;;
10701;SDS011;5402;50.004;8.246;2023-04-15T03:46:21;5.83;;;2.60;;
10701;SDS011;5402;50.004;8.246;2023-04-15T03:48:48;4.20;;;2.37;;
10701;SDS011;5402;50.004;8.246;2023-04-15T03:51:15;4.77;;;2.57;;
10701;SDS011;5402;50.004;8.246;2023-04-15T03:53:41;4.73;;;2.40;;
10701;SDS011;5402;50.004;8.246;2023-04-15T03:56:08;4.73;;;2.70;;
10701;SDS011;5402;50.004;8.246;2023-04-15T03:58:35;5.23;;;2.37;;
10701;SDS011;5402;50.004;8.246;2023-04-15T04:01:03;4.63;;;2.50;;
10701;SDS011;5402;50.004;8.246;2023-04-15T04:03:30;4.13;;;2.10;;
10701;SDS011;5402;50.004;8.246;2023-04-15T04:05:57;4.87;;;2.53;;
10701;SDS011;5402;50.004;8.246;2023-04-15T04:08:24;4.17;;;2.13;;
10701;SDS011;5402;50.004;8.246;2023-04-15T04:10:51;4.23;;;2.20;;
10701;SDS011;5402;50.004;8.246;2023-04-15T04:13:18;4.23;;;2.40;;
10701;SDS011;5402;50.004;8.246;2023-04-15T04:15:45;4.17;;;2.20;;
10701;SDS011;5402;50.004;8.246;2023-04-15T04:18:14;3.70;;;2.33;;
10701;SDS011;5402;50.004;8.246;2023-04-15T04:20:40;5.00;;;2.30;;
10701;SDS011;5402;50.004;8.246;2023-04-15T04:23:07;3.03;;;2.30;;
10701;SDS011;5402;50.004;8.246;2023-04-15T04:25:34;3.70;;;2.17;;
10701;SDS011;5402;50.004;8.246;2023-04-15T04:28:01;5.37;;;2.47;;
10701;SDS011;5402;50.004;8.246;2023-04-15T04:30:29;6.23;;;2.60;;
10701;SDS011;5402;50.004;8.246;2023-04-15T04:32:56;4.23;;;2.20;;
10701;SDS011;5402;50.004;8.246;2023-04-15T04:35:24;3.60;;;2.27;;
10701;SDS011;5402;50.004;8.246;2023-04-15T04:37:51;5.23;;;2.20;;
10701;SDS011;5402;50.004;8.246;2023-04-15T04:40:18;5.10;;;2.30;;
10701;SDS011;5402;50.004;8.246;2023-04-15T04:42:45;4.70;;;2.47;;
10701;SDS011;5402;50.004;8.246;2023-04-15T04:45:12;7.43;;;2.33;;
10701;SDS011;5402;50.004;8.246;2023-04-15T04:47:39;5.00;;;2.33;;
10701;SDS011;5402;50.004;8.246;2023-04-15T04:50:07;5.47;;;2.57;;
10701;SDS011;5402;50.004;8.246;2023-04-15T04:52:35;5.03;;;2.50;;
10701;SDS011;5402;50.004;8.246;2023-04-15T04:55:02;6.70;;;2.27;;
10701;SDS011;5402;50.004;8.246;2023-04-15T04:57:29;3.53;;;2.27;;
10701;SDS011;5402;50.004;8.246;2023-04-15T04:59:56;4.17;;;2.40;;
10701;SDS011;5402;50.004;8.246;2023-04-15T05:02:23;5.30;;;2.60;;
10701;SDS011;5402;50.004;8.246;2023-04-15T05:04:51;4.57;;;1.87;;
10701;SDS011;5402;50.004;8.246;2023-04-15T05:07:19;4.47;;;2.87;;
10701;SDS011;5402;50.004;8.246;2023-04-15T05:09:47;5.00;;;2.20;;
10701;SDS011;5402;50.004;8.246;2023-04-15T05:12:14;3.03;;;2.30;;
10701;SDS011;5402;50.004;8.246;2023-04-15T05:14:42;4.37;;;2.83;;
10701;SDS011;5402;50.004;8.246;2023-04-15T05:17:10;3.27;;;2.07;;
10701;SDS011;5402;50.004;8.246;2023-04-15T05:19:38;3.40;;;2.20;;
10701;SDS011;5402;50.004;8.246;2023-04-15T05:22:04;5.33;;;1.87;;
10701;SDS011;5402;50.004;8.246;2023-04-15T05:24:31;7.60;;;2.00;;
10701;SDS011;5402;50.004;8.246;2023-04-15T05:26:59;2.47;;;2.00;;
10701;SDS011;5402;50.004;8.246;2023-04-15T05:29:26;3.00;;;1.97;;
10701;SDS011;5402;50.004;8.246;2023-04-15T05:31:55;2.43;;;1.93;;
10701;SDS011;5402;50.004;8.246;2023-04-15T05:34:22;5.23;;;2.40;;
10701;SDS011;5402;50.004;8.246;2023-04-15T05:36:49;3.20;;;1.90;;
10701;SDS011;5402;50.004;8.246;2023-04-15T05:39:16;3.00;;;2.10;;
10701;SDS011;5402;50.004;8.246;2023-04-15T05:41:43;6.23;;;2.20;;
10701;SDS011;5402;50.004;8.246;2023-04-15T05:44:11;4.70;;;2.23;;
10701;SDS011;5402;50.004;8.246;2023-04-15T05:46:38;4.17;;;2.27;;
10701;SDS011;5402;50.004;8.246;2023-04-15T05:49:04;5.20;;;2.07;;
10701;SDS011;5402;50.004;8.246;2023-04-15T05:51:31;3.90;;;2.20;;
10701;SDS011;5402;50.004;8.246;2023-04-15T05:53:58;3.50;;;2.10;;
10701;SDS011;5402;50.004;8.246;2023-04-15T05:56:25;5.17;;;2.60;;
10701;SDS011;5402;50.004;8.246;2023-04-15T05:58:52;3.23;;;2.00;;
10701;SDS011;5402;50.004;8.246;2023-04-15T06:01:20;3.93;;;2.30;;
10701;SDS011;5402;50.004;8.246;2023-04-15T06:03:47;2.97;;;2.30;;
10701;SDS011;5402;50.004;8.246;2023-04-15T06:06:14;3.37;;;2.30;;
10701;SDS011;5402;50.004;8.246;2023-04-15T06:08:40;3.53;;;2.20;;
10701;SDS011;5402;50.004;8.246;2023-04-15T06:11:07;3.83;;;2.40;;
10701;SDS011;5402;50.004;8.246;2023-04-15T06:13:34;7.40;;;2.43;;
10701;SDS011;5402;50.004;8.246;2023-04-15T06:16:01;4.90;;;2.20;;
10701;SDS011;5402;50.004;8.246;2023-04-15T06:18:29;3.33;;;2.30;;
10701;SDS011;5402;50.004;8.246;2023-04-15T06:20:56;3.80;;;2.00;;
10701;SDS011;5402;50.004;8.246;2023-04-15T06:23:22;4.47;;;2.00;;
10701;SDS011;5402;50.004;8.246;2023-04-15T06:25:50;5.10;;;2.40;;
10701;SDS011;5402;50.004;8.246;2023-04-15T06:28:16;4.93;;;2.20;;
10701;SDS011;5402;50.004;8.246;2023-04-15T06:30:43;4.57;;;2.37;;
10701;SDS011;5402;50.004;8.246;2023-04-15T06:33:11;3.97;;;2.50;;
10701;SDS011;5402;50.004;8.246;2023-04-15T06:35:39;5.03;;;2.40;;
10701;SDS011;5402;50.004;8.246;2023-04-15T06:38:06;5.13;;;2.57;;
10701;SDS011;5402;50.004;8.246;2023-04-15T06:40:32;4.07;;;2.30;;
10701;SDS011;5402;50.004;8.246;2023-04-15T06:42:59;4.20;;;2.70;;
10701;SDS011;5402;50.004;8.246;2023-04-15T06:45:26;4.50;;;2.20;;
10701;SDS011;5402;50.004;8.246;2023-04-15T06:47:54;3.83;;;2.40;;
10701;SDS011;5402;50.004;8.246;2023-04-15T06:50:20;5.43;;;2.97;;
10701;SDS011;5402;50.004;8.246;2023-04-15T06:52:49;4.70;;;2.40;;
10701;SDS011;5402;50.004;8.246;2023-04-15T06:55:16;4.27;;;2.53;;
10701;SDS011;5402;50.004;8.246;2023-04-15T06:57:43;3.43;;;2.50;;
10701;SDS011;5402;50.004;8.246;2023-04-15T07:00:10;8.20;;;2.33;;
10701;SDS011;5402;50.004;8.246;2023-04-15T07:02:37;3.10;;;2.30;;
10701;SDS011;5402;50.004;8.246;2023-04-15T07:05:06;5.23;;;2.33;;
10701;SDS011;5402;50.004;8.246;2023-04-15T07:07:34;5.20;;;2.53;;
10701;SDS011;5402;50.004;8.246;2023-04-15T07:10:03;4.17;;;2.30;;
10701;SDS011;5402;50.004;8.246;2023-04-15T07:12:30;3.33;;;2.13;;
10701;SDS011;5402;50.004;8.246;2023-04-15T07:14:56;2.93;;;2.20;;
10701;SDS011;5402;50.004;8.246;2023-04-15T07:17:23;3.77;;;1.90;;
10701;SDS011;5402;50.004;8.246;2023-04-15T07:19:50;3.67;;;2.27;;
10701;SDS011;5402;50.004;8.246;2023-04-15T07:22:17;2.80;;;1.90;;
10701;SDS011;5402;50.004;8.246;2023-04-15T07:24:43;2.57;;;2.00;;
10701;SDS011;5402;50.004;8.246;2023-04-15T07:27:12;3.87;;;2.07;;
10701;SDS011;5402;50.004;8.246;2023-04-15T07:29:38;2.17;;;1.90;;
10701;SDS011;5402;50.004;8.246;2023-04-15T07:32:13;5.10;;;2.20;;
10701;SDS011;5402;50.004;8.246;2023-04-15T07:34:39;4.50;;;2.07;;
10701;SDS011;5402;50.004;8.246;2023-04-15T07:37:07;2.53;;;2.10;;
10701;SDS011;5402;50.004;8.246;2023-04-15T07:39:33;6.63;;;2.10;;
10701;SDS011;5402;50.004;8.246;2023-04-15T07:42:01;7.07;;;2.50;;
10701;SDS011;5402;50.004;8.246;2023-04-15T07:44:29;8.33;;;2.10;;
10701;SDS011;5402;50.004;8.246;2023-04-15T07:46:56;4.43;;;2.40;;
10701;SDS011;5402;50.004;8.246;2023-04-15T07:49:23;5.77;;;2.63;;
10701;SDS011;5402;50.004;8.246;2023-04-15T07:51:50;6.63;;;2.90;;
10701;SDS011;5402;50.004;8.246;2023-04-15T07:54:17;4.70;;;2.90;;
10701;SDS011;5402;50.004;8.246;2023-04-15T07:56:43;5.13;;;2.63;;
10701;SDS011;5402;50.004;8.246;2023-04-15T07:59:10;4.27;;;2.70;;
10701;SDS011;5402;50.004;8.246;2023-04-15T08:01:38;5.93;;;3.20;;
10701;SDS011;5402;50.004;8.246;2023-04-15T08:04:05;4.37;;;2.80;;
10701;SDS011;5402;50.004;8.246;2023-04-15T08:06:32;5.10;;;2.90;;
10701;SDS011;5402;50.004;8.246;2023-04-15T08:08:58;4.67;;;2.83;;
10701;SDS011;5402;50.004;8.246;2023-04-15T08:14:53;6.40;;;2.80;;
10701;SDS011;5402;50.004;8.246;2023-04-15T08:17:21;4.80;;;2.60;;
10701;SDS011;5402;50.004;8.246;2023-04-15T08:19:48;4.23;;;3.00;;
10701;SDS011;5402;50.004;8.246;2023-04-15T08:22:15;3.30;;;2.53;;
10701;SDS011;5402;50.004;8.246;2023-04-15T08:24:42;6.83;;;2.60;;
10701;SDS011;5402;50.004;8.246;2023-04-15T08:27:09;5.53;;;2.70;;
10701;SDS011;5402;50.004;8.246;2023-04-15T08:29:37;5.27;;;2.90;;
10701;SDS011;5402;50.004;8.246;2023-04-15T08:32:04;3.97;;;2.70;;
10701;SDS011;5402;50.004;8.246;2023-04-15T08:34:33;3.43;;;2.47;;
10701;SDS011;5402;50.004;8.246;2023-04-15T08:37:00;4.87;;;2.83;;
10701;SDS011;5402;50.004;8.246;2023-04-15T08:39:27;2.90;;;2.57;;
10701;SDS011;5402;50.004;8.246;2023-04-15T08:41:55;5.80;;;3.40;;
10701;SDS011;5402;50.004;8.246;2023-04-15T08:44:27;5.87;;;3.30;;
10701;SDS011;5402;50.004;8.246;2023-04-15T08:46:55;6.97;;;3.27;;
10701;SDS011;5402;50.004;8.246;2023-04-15T08:49:25;5.03;;;3.37;;
10701;SDS011;5402;50.004;8.246;2023-04-15T08:51:54;5.77;;;3.70;;
10701;SDS011;5402;50.004;8.246;2023-04-15T08:54:23;4.77;;;3.20;;
10701;SDS011;5402;50.004;8.246;2023-04-15T08:56:50;7.17;;;3.43;;
10701;SDS011;5402;50.004;8.246;2023-04-15T08:59:18;5.43;;;3.47;;
10701;SDS011;5402;50.004;8.246;2023-04-15T09:01:46;5.40;;;3.03;;
10701;SDS011;5402;50.004;8.246;2023-04-15T09:04:14;4.03;;;2.90;;
10701;SDS011;5402;50.004;8.246;2023-04-15T09:06:42;4.30;;;2.73;;
10701;SDS011;5402;50.004;8.246;2023-04-15T09:09:10;5.53;;;3.40;;
10701;SDS011;5402;50.004;8.246;2023-04-15T09:11:38;3.67;;;2.40;;
10701;SDS011;5402;50.004;8.246;2023-04-15T09:14:04;3.33;;;2.80;;
10701;SDS011;5402;50.004;8.246;2023-04-15T09:16:31;3.70;;;2.60;;
10701;SDS011;5402;50.004;8.246;2023-04-15T09:19:22;4.30;;;1.60;;
10701;SDS011;5402;50.004;8.246;2023-04-15T09:21:50;3.63;;;1.80;;
10701;SDS011;5402;50.004;8.246;2023-04-15T09:24:19;2.03;;;1.70;;
10701;SDS011;5402;50.004;8.246;2023-04-15T09:26:46;3.03;;;1.70;;
10701;SDS011;5402;50.004;8.246;2023-04-15T09:29:17;2.40;;;1.60;;
10701;SDS011;5402;50.004;8.246;2023-04-15T09:31:43;2.67;;;1.60;;
10701;SDS011;5402;50.004;8.246;2023-04-15T09:34:10;2.43;;;1.57;;
10701;SDS011;5402;50.004;8.246;2023-04-15T09:36:39;1.80;;;1.27;;
10701;SDS011;5402;50.004;8.246;2023-04-15T09:39:19;4.50;;;1.70;;
10701;SDS011;5402;50.004;8.246;2023-04-15T09:41:46;2.60;;;1.50;;
10701;SDS011;5402;50.004;8.246;2023-04-15T09:44:22;2.57;;;1.30;;
10701;SDS011;5402;50.004;8.246;2023-04-15T09:46:49;2.70;;;1.30;;
10701;SDS011;5402;50.004;8.246;2023-04-15T09:49:16;3.07;;;1.47;;
10701;SDS011;5402;50.004;8.246;2023-04-15T09:51:43;2.10;;;1.30;;
10701;SDS011;5402;50.004;8.246;2023-04-15T09:54:11;2.10;;;1.40;;
10701;SDS011;5402;50.004;8.246;2023-04-15T09:56:39;2.67;;;1.30;;
10701;SDS011;5402;50.004;8.246;2023-04-15T09:59:06;3.33;;;1.20;;
10701;SDS011;5402;50.004;8.246;2023-04-15T10:01:33;2.70;;;1.37;;
10701;SDS011;5402;50.004;8.246;2023-04-15T10:04:01;2.37;;;1.30;;
10701;SDS011;5402;50.004;8.246;2023-04-15T10:06:29;2.33;;;1.30;;
10701;SDS011;5402;50.004;8.246;2023-04-15T10:08:56;2.20;;;1.20;;
10701;SDS011;5402;50.004;8.246;2023-04-15T10:11:23;4.63;;;1.30;;
10701;SDS011;5402;50.004;8.246;2023-04-15T10:13:54;1.70;;;1.10;;
10701;SDS011;5402;50.004;8.246;2023-04-15T10:16:24;1.87;;;1.30;;
10701;SDS011;5402;50.004;8.246;2023-04-15T10:18:53;2.60;;;1.30;;
10701;SDS011;5402;50.004;8.246;2023-04-15T10:21:21;1.37;;;1.27;;
10701;SDS011;5402;50.004;8.246;2023-04-15T10:23:48;2.03;;;1.57;;
10701;SDS011;5402;50.004;8.246;2023-04-15T10:26:15;2.50;;;1.57;;
10701;SDS011;5402;50.004;8.246;2023-04-15T10:28:42;3.03;;;1.60;;
10701;SDS011;5402;50.004;8.246;2023-04-15T10:31:12;1.50;;;1.40;;
10701;SDS011;5402;50.004;8.246;2023-04-15T10:33:40;1.97;;;1.30;;
10701;SDS011;5402;50.004;8.246;2023-04-15T10:36:07;3.13;;;1.30;;
10701;SDS011;5402;50.004;8.246;2023-04-15T10:38:35;1.67;;;1.30;;
10701;SDS011;5402;50.004;8.246;2023-04-15T10:41:13;4.27;;;1.80;;
10701;SDS011;5402;50.004;8.246;2023-04-15T10:43:44;2.97;;;1.70;;
10701;SDS011;5402;50.004;8.246;2023-04-15T10:46:20;3.23;;;1.60;;
10701;SDS011;5402;50.004;8.246;2023-04-15T10:48:49;1.77;;;1.30;;
10701;SDS011;5402;50.004;8.246;2023-04-15T10:51:25;3.03;;;1.37;;
10701;SDS011;5402;50.004;8.246;2023-04-15T10:53:57;1.40;;;1.30;;
10701;SDS011;5402;50.004;8.246;2023-04-15T10:56:27;1.57;;;1.10;;
10701;SDS011;5402;50.004;8.246;2023-04-15T10:58:55;2.77;;;1.40;;
10701;SDS011;5402;50.004;8.246;2023-04-15T11:01:35;2.17;;;1.20;;
10701;SDS011;5402;50.004;8.246;2023-04-15T11:04:21;3.23;;;1.30;;
10701;SDS011;5402;50.004;8.246;2023-04-15T11:07:35;2.63;;;1.20;;
10701;SDS011;5402;50.004;8.246;2023-04-15T11:10:05;1.87;;;1.40;;
10701;SDS011;5402;50.004;8.246;2023-04-15T11:13:32;2.77;;;1.67;;
10701;SDS011;5402;50.004;8.246;2023-04-15T11:16:00;2.23;;;1.30;;
10701;SDS011;5402;50.004;8.246;2023-04-15T11:18:41;1.53;;;1.10;;
10701;SDS011;5402;50.004;8.246;2023-04-15T11:21:18;2.07;;;1.20;;
10701;SDS011;5402;50.004;8.246;2023-04-15T11:23:49;1.83;;;1.00;;
10701;SDS011;5402;50.004;8.246;2023-04-15T11:26:16;1.53;;;1.10;;
10701;SDS011;5402;50.004;8.246;2023-04-15T11:28:43;3.53;;;1.30;;
10701;SDS011;5402;50.004;8.246;2023-04-15T11:31:11;1.73;;;1.30;;
10701;SDS011;5402;50.004;8.246;2023-04-15T11:33:53;2.53;;;1.23;;
10701;SDS011;5402;50.004;8.246;2023-04-15T11:36:22;0.70;;;0.70;;
10701;SDS011;5402;50.004;8.246;2023-04-15T11:38:51;0.80;;;0.80;;
10701;SDS011;5402;50.004;8.246;2023-04-15T11:41:19;1.87;;;0.90;;
10701;SDS011;5402;50.004;8.246;2023-04-15T11:43:47;0.80;;;0.80;;
10701;SDS011;5402;50.004;8.246;2023-04-15T11:46:14;1.13;;;0.80;;
10701;SDS011;5402;50.004;8.246;2023-04-15T11:48:42;0.80;;;0.80;;
10701;SDS011;5402;50.004;8.246;2023-04-15T11:51:11;0.73;;;0.73;;
10701;SDS011;5402;50.004;8.246;2023-04-15T11:53:39;0.60;;;0.60;;
10701;SDS011;5402;50.004;8.246;2023-04-15T11:56:07;1.53;;;0.80;;
10701;SDS011;5402;50.004;8.246;2023-04-15T11:58:36;0.80;;;0.80;;
10701;SDS011;5402;50.004;8.246;2023-04-15T12:01:03;1.07;;;0.90;;
10701;SDS011;5402;50.004;8.246;2023-04-15T12:03:35;0.70;;;0.70;;
10701;SDS011;5402;50.004;8.246;2023-04-15T12:06:16;1.00;;;0.87;;
10701;SDS011;5402;50.004;8.246;2023-04-15T12:11:40;2.00;;;1.10;;
10701;SDS011;5402;50.004;8.246;2023-04-15T12:14:10;0.80;;;0.80;;
10701;SDS011;5402;50.004;8.246;2023-04-15T12:16:41;1.03;;;0.93;;
10701;SDS011;5402;50.004;8.246;2023-04-15T12:19:11;1.50;;;0.97;;
10701;SDS011;5402;50.004;8.246;2023-04-15T12:21:43;1.50;;;0.90;;
10701;SDS011;5402;50.004;8.246;2023-04-15T12:24:11;1.57;;;0.73;;
10701;SDS011;5402;50.004;8.246;2023-04-15T12:26:42;1.40;;;1.00;;
10701;SDS011;5402;50.004;8.246;2023-04-15T12:29:11;1.10;;;1.00;;
10701;SDS011;5402;50.004;8.246;2023-04-15T12:31:46;1.00;;;0.80;;
10701;SDS011;5402;50.004;8.246;2023-04-15T12:34:16;1.10;;;0.90;;
10701;SDS011;5402;50.004;8.246;2023-04-15T12:36:46;2.47;;;1.00;;
10701;SDS011;5402;50.004;8.246;2023-04-15T12:39:12;0.80;;;0.80;;
10701;SDS011;5402;50.004;8.246;2023-04-15T12:41:39;1.10;;;1.00;;
10701;SDS011;5402;50.004;8.246;2023-04-15T12:44:06;1.10;;;1.10;;
10701;SDS011;5402;50.004;8.246;2023-04-15T12:46:33;1.10;;;1.00;;
10701;SDS011;5402;50.004;8.246;2023-04-15T12:49:00;2.10;;;1.20;;
10701;SDS011;5402;50.004;8.246;2023-04-15T12:51:27;1.20;;;1.10;;
10701;SDS011;5402;50.004;8.246;2023-04-15T12:53:55;1.30;;;1.03;;
10701;SDS011;5402;50.004;8.246;2023-04-15T12:56:22;1.53;;;1.10;;
10701;SDS011;5402;50.004;8.246;2023-04-15T12:58:49;1.13;;;1.07;;
10701;SDS011;5402;50.004;8.246;2023-04-15T13:01:15;1.47;;;1.20;;
10701;SDS011;5402;50.004;8.246;2023-04-15T13:03:42;1.27;;;1.17;;
10701;SDS011;5402;50.004;8.246;2023-04-15T13:06:09;0.90;;;0.90;;
10701;SDS011;5402;50.004;8.246;2023-04-15T13:08:36;1.20;;;1.10;;
10701;SDS011;5402;50.004;8.246;2023-04-15T13:11:04;1.70;;;1.20;;
10701;SDS011;5402;50.004;8.246;2023-04-15T13:13:31;1.30;;;1.20;;
10701;SDS011;5402;50.004;8.246;2023-04-15T13:15:58;1.70;;;1.30;;
10701;SDS011;5402;50.004;8.246;2023-04-15T13:18:27;1.67;;;1.30;;
10701;SDS011;5402;50.004;8.246;2023-04-15T13:20:55;2.90;;;1.20;;
10701;SDS011;5402;50.004;8.246;2023-04-15T13:23:21;1.67;;;1.20;;
10701;SDS011;5402;50.004;8.246;2023-04-15T13:25:48;1.03;;;0.93;;
10701;SDS011;5402;50.004;8.246;2023-04-15T13:28:17;1.37;;;1.27;;
10701;SDS011;5402;50.004;8.246;2023-04-15T13:30:44;1.40;;;1.17;;
10701;SDS011;5402;50.004;8.246;2023-04-15T13:33:12;1.30;;;1.20;;
10701;SDS011;5402;50.004;8.246;2023-04-15T13:35:39;1.67;;;1.20;;
10701;SDS011;5402;50.004;8.246;2023-04-15T13:38:06;2.00;;;1.07;;
10701;SDS011;5402;50.004;8.246;2023-04-15T13:40:33;1.20;;;1.10;;
10701;SDS011;5402;50.004;8.246;2023-04-15T13:43:00;1.13;;;1.10;;
10701;SDS011;5402;50.004;8.246;2023-04-15T13:45:28;1.83;;;1.40;;
10701;SDS011;5402;50.004;8.246;2023-04-15T13:47:55;1.37;;;1.27;;
10701;SDS011;5402;50.004;8.246;2023-04-15T13:50:22;1.30;;;1.20;;
10701;SDS011;5402;50.004;8.246;2023-04-15T13:52:48;1.43;;;1.33;;
10701;SDS011;5402;50.004;8.246;2023-04-15T13:55:15;2.47;;;1.30;;
10701;SDS011;5402;50.004;8.246;2023-04-15T13:57:43;1.33;;;1.23;;
10701;SDS011;5402;50.004;8.246;2023-04-15T14:00:10;4.27;;;1.77;;
10701;SDS011;5402;50.004;8.246;2023-04-15T14:02:39;1.33;;;1.23;;
10701;SDS011;5402;50.004;8.246;2023-04-15T14:05:06;1.37;;;1.27;;
10701;SDS011;5402;50.004;8.246;2023-04-15T14:07:33;1.67;;;1.37;;
10701;SDS011;5402;50.004;8.246;2023-04-15T14:10:00;1.37;;;1.27;;
10701;SDS011;5402;50.004;8.246;2023-04-15T14:12:27;1.40;;;1.30;;
10701;SDS011;5402;50.004;8.246;2023-04-15T14:14:54;1.30;;;1.20;;
10701;SDS011;5402;50.004;8.246;2023-04-15T14:17:20;1.23;;;1.13;;
10701;SDS011;5402;50.004;8.246;2023-04-15T14:19:48;1.43;;;1.33;;
10701;SDS011;5402;50.004;8.246;2023-04-15T14:22:15;1.30;;;1.20;;
10701;SDS011;5402;50.004;8.246;2023-04-15T14:24:42;1.63;;;1.43;;
10701;SDS011;5402;50.004;8.246;2023-04-15T14:27:09;2.90;;;1.60;;
10701;SDS011;5402;50.004;8.246;2023-04-15T14:29:37;3.03;;;1.40;;
10701;SDS011;5402;50.004;8.246;2023-04-15T14:32:04;1.40;;;1.30;;
10701;SDS011;5402;50.004;8.246;2023-04-15T14:34:31;1.47;;;1.37;;
10701;SDS011;5402;50.004;8.246;2023-04-15T14:36:59;2.70;;;1.60;;
10701;SDS011;5402;50.004;8.246;2023-04-15T14:39:25;1.70;;;1.60;;
10701;SDS011;5402;50.004;8.246;2023-04-15T14:41:52;2.93;;;1.73;;
10701;SDS011;5402;50.004;8.246;2023-04-15T14:44:20;1.53;;;1.43;;
10701;SDS011;5402;50.004;8.246;2023-04-15T14:46:47;1.93;;;1.50;;
10701;SDS011;5402;50.004;8.246;2023-04-15T14:49:13;1.70;;;1.60;;
10701;SDS011;5402;50.004;8.246;2023-04-15T14:51:40;1.60;;;1.50;;
10701;SDS011;5402;50.004;8.246;2023-04-15T14:54:09;2.77;;;1.90;;
10701;SDS011;5402;50.004;8.246;2023-04-15T14:56:35;1.80;;;1.70;;
10701;SDS011;5402;50.004;8.246;2023-04-15T14:59:02;3.50;;;1.60;;
10701;SDS011;5402;50.004;8.246;2023-04-15T15:01:29;2.10;;;1.80;;
10701;SDS011;5402;50.004;8.246;2023-04-15T15:03:56;2.50;;;2.17;;
10701;SDS011;5402;50.004;8.246;2023-04-15T15:06:23;2.30;;;1.83;;
10701;SDS011;5402;50.004;8.246;2023-04-15T15:08:50;2.47;;;1.60;;
10701;SDS011;5402;50.004;8.246;2023-04-15T15:11:18;1.70;;;1.60;;